Time;durP1;ratioP1;P1;durP2;ratioP2;P2;SDS_P1;SDS_P2;PMS_P1;PMS_P2;Temp;Humidity;BMP_temperature;BMP_pressure;BME280_temperature;BME280_humidity;BME280_pressure;Samples;Min_cycle;Max_cycle;Signal;HPM_P1;HPM_P2
2022/12/31 00:01:05;;;;;;;0.37;0.30;;;;;;;10.95;100.00;99734.75;4994914;28;20200;-80
2022/12/31 00:03:34;;;;;;;0.70;0.50;;;;;;;10.97;100.00;99739.97;5002598;28;20582;-83
2022/12/31 00:06:01;;;;;;;0.30;0.30;;;;;;;10.99;100.00;99743.38;4999300;28;20283;-84
2022/12/31 00:08:28;;;;;;;0.37;0.30;;;;;;;11.04;100.00;99734.06;4994508;28;20204;-82
2022/12/31 00:10:54;;;;;;;0.90;0.27;;;;;;;11.03;100.00;99739.50;4993901;28;20212;-82
2022/12/31 00:13:21;;;;;;;0.37;0.37;;;;;;;11.04;100.00;99755.38;4991444;28;20205;-82
2022/12/31 00:15:48;;;;;;;0.30;0.20;;;;;;;11.05;100.00;99759.72;5000033;28;20702;-84
2022/12/31 00:18:14;;;;;;;0.93;0.37;;;;;;;11.08;100.00;99737.31;5000587;28;20727;-82
2022/12/31 00:20:42;;;;;;;0.67;0.40;;;;;;;11.12;100.00;99744.94;5000332;28;20671;-81
2022/12/31 00:23:09;;;;;;;0.50;0.40;;;;;;;11.14;100.00;99740.31;5001130;28;20212;-82
2022/12/31 00:25:36;;;;;;;0.40;0.40;;;;;;;11.14;100.00;99737.66;4996472;28;20694;-82
2022/12/31 00:28:03;;;;;;;0.80;0.30;;;;;;;11.17;100.00;99738.38;4995410;28;20280;-81
2022/12/31 00:30:30;;;;;;;0.40;0.40;;;;;;;11.19;100.00;99749.78;5003162;28;20209;-81
2022/12/31 00:32:56;;;;;;;0.30;0.30;;;;;;;11.20;100.00;99746.16;5007339;28;20637;-82
2022/12/31 00:35:23;;;;;;;1.53;0.43;;;;;;;11.17;100.00;99759.72;5001857;28;20665;-82
2022/12/31 00:37:52;;;;;;;0.43;0.30;;;;;;;11.19;100.00;99752.44;5003043;28;20231;-81
2022/12/31 00:40:19;;;;;;;0.40;0.30;;;;;;;11.17;100.00;99747.22;4995777;28;20238;-82
2022/12/31 00:42:45;;;;;;;0.30;0.30;;;;;;;11.20;100.00;99739.00;4997384;28;20217;-82
2022/12/31 00:45:12;;;;;;;0.30;0.20;;;;;;;11.20;100.00;99738.16;5009656;28;20211;-82
2022/12/31 00:47:38;;;;;;;0.20;0.20;;;;;;;11.18;100.00;99748.94;5004113;28;20209;-81
2022/12/31 00:50:06;;;;;;;0.43;0.30;;;;;;;11.22;100.00;99742.38;5006598;28;20211;-83
2022/12/31 00:52:32;;;;;;;0.30;0.23;;;;;;;11.25;100.00;99738.63;5001439;28;20207;-82
2022/12/31 00:55:00;;;;;;;0.37;0.30;;;;;;;11.26;100.00;99743.00;4990270;28;20205;-81
2022/12/31 00:57:26;;;;;;;0.40;0.40;;;;;;;11.28;100.00;99746.38;4994969;28;20240;-83
2022/12/31 00:59:53;;;;;;;0.30;0.30;;;;;;;11.31;100.00;99748.78;4995337;28;20212;-81
2022/12/31 01:02:19;;;;;;;0.30;0.30;;;;;;;11.30;100.00;99752.41;4996496;28;20208;-81
2022/12/31 01:04:46;;;;;;;0.20;0.20;;;;;;;11.30;100.00;99755.09;4994693;28;20211;-82
2022/12/31 01:07:13;;;;;;;0.50;0.30;;;;;;;11.32;100.00;99748.66;4995830;28;20572;-82
2022/12/31 01:09:39;;;;;;;0.90;0.30;;;;;;;11.35;100.00;99740.41;5000790;28;20226;-82
2022/12/31 01:12:07;;;;;;;0.40;0.40;;;;;;;11.37;100.00;99743.81;4994038;28;20208;-82
2022/12/31 01:14:34;;;;;;;0.47;0.40;;;;;;;11.40;100.00;99754.22;4999193;28;20202;-82
2022/12/31 01:17:00;;;;;;;0.30;0.30;;;;;;;11.40;100.00;99753.38;4996530;28;20232;-82
2022/12/31 01:19:29;;;;;;;0.40;0.23;;;;;;;11.41;100.00;99757.75;4997516;28;20226;-83
2022/12/31 01:21:56;;;;;;;0.30;0.30;;;;;;;11.42;100.00;99764.78;5001831;28;20205;-83
2022/12/31 01:24:23;;;;;;;0.60;0.40;;;;;;;11.41;100.00;99771.94;4996644;28;20209;-83
2022/12/31 01:26:50;;;;;;;0.80;0.30;;;;;;;11.41;100.00;99769.25;4994302;28;20697;-82
2022/12/31 01:29:18;;;;;;;0.30;0.30;;;;;;;11.40;100.00;99777.38;4996079;28;20203;-82
2022/12/31 01:31:44;;;;;;;0.97;0.40;;;;;;;11.37;100.00;99780.28;4997172;28;20207;-82
2022/12/31 01:34:11;;;;;;;0.67;0.40;;;;;;;11.35;100.00;99771.56;4994315;28;20207;-82
2022/12/31 01:36:38;;;;;;;0.60;0.50;;;;;;;11.36;100.00;99765.25;4995243;28;20232;-81
2022/12/31 01:39:06;;;;;;;1.03;0.40;;;;;;;11.35;100.00;99769.75;5000141;28;20218;-81
2022/12/31 01:41:37;;;;;;;0.30;0.27;;;;;;;11.30;100.00;99766.59;4995452;28;20298;-82
2022/12/31 01:44:42;;;;;;;0.93;0.30;;;;;;;11.34;100.00;99769.88;5000048;28;20224;-82
2022/12/31 01:47:15;;;;;;;0.30;0.30;;;;;;;11.30;100.00;99777.25;4994044;28;20245;-82
2022/12/31 01:49:45;;;;;;;0.50;0.30;;;;;;;11.31;100.00;99767.44;4996768;28;20198;-82
2022/12/31 01:52:15;;;;;;;0.20;0.20;;;;;;;11.32;100.00;99767.31;4991705;28;20244;-83
2022/12/31 01:54:47;;;;;;;0.80;0.30;;;;;;;11.34;100.00;99762.72;4997643;28;20196;-83
2022/12/31 01:57:15;;;;;;;0.30;0.30;;;;;;;11.37;100.00;99753.63;4987835;28;21421;-83
2022/12/31 01:59:43;;;;;;;0.20;0.20;;;;;;;11.39;100.00;99762.34;4989710;28;20237;-82
2022/12/31 02:02:10;;;;;;;0.43;0.20;;;;;;;11.43;100.00;99759.31;4990278;28;20215;-83
2022/12/31 02:04:38;;;;;;;0.20;0.20;;;;;;;11.46;100.00;99752.91;5001510;28;20230;-82
2022/12/31 02:07:06;;;;;;;0.20;0.20;;;;;;;11.48;100.00;99750.94;4991524;28;20235;-82
2022/12/31 02:09:33;;;;;;;0.40;0.30;;;;;;;11.54;100.00;99754.94;4988931;28;20203;-82
2022/12/31 02:12:00;;;;;;;0.23;0.20;;;;;;;11.55;100.00;99744.13;4989227;28;20223;-82
2022/12/31 02:14:30;;;;;;;0.40;0.30;;;;;;;11.57;100.00;99739.53;4985912;28;20209;-82
2022/12/31 02:17:02;;;;;;;0.57;0.30;;;;;;;11.60;100.00;99743.75;4994559;28;20231;-82
2022/12/31 02:19:55;;;;;;;0.50;0.40;;;;;;;11.61;100.00;99729.47;4998862;28;20229;-82
2022/12/31 02:22:36;;;;;;;0.83;0.50;;;;;;;11.59;100.00;99731.41;4999033;28;20203;-82
2022/12/31 02:25:24;;;;;;;2.47;1.10;;;;;;;11.62;100.00;99734.66;4996420;28;20674;-83
2022/12/31 02:27:58;;;;;;;1.07;0.60;;;;;;;11.64;100.00;99719.41;4992962;28;20215;-86
2022/12/31 02:30:32;;;;;;;0.60;0.60;;;;;;;11.66;100.00;99713.91;4991278;28;20203;-83
2022/12/31 02:33:08;;;;;;;1.23;0.47;;;;;;;11.63;100.00;99715.03;4993305;28;20206;-82
2022/12/31 02:35:44;;;;;;;0.40;0.40;;;;;;;11.65;100.00;99709.53;5003003;28;20227;-83
2022/12/31 02:38:14;;;;;;;0.23;0.23;;;;;;;11.64;100.00;99715.88;4985518;28;20224;-82
2022/12/31 02:40:41;;;;;;;1.27;0.60;;;;;;;11.65;100.00;99709.53;4994000;28;20203;-83
2022/12/31 02:43:08;;;;;;;0.60;0.40;;;;;;;11.65;100.00;99709.53;4986249;28;20210;-82
2022/12/31 02:45:39;;;;;;;0.40;0.40;;;;;;;11.66;100.00;99708.56;4998942;28;20230;-83
2022/12/31 02:48:26;;;;;;;0.40;0.40;;;;;;;11.68;100.00;99695.97;4993795;28;20202;-83
2022/12/31 02:51:02;;;;;;;0.97;0.60;;;;;;;11.65;100.00;99694.38;4997142;28;20220;-82
2022/12/31 02:53:49;;;;;;;0.90;0.60;;;;;;;11.66;100.00;99696.09;5002343;28;20210;-82
2022/12/31 02:56:23;;;;;;;0.50;0.50;;;;;;;11.68;100.00;99695.97;5004902;28;20229;-83
2022/12/31 03:04:35;;;;;;;0.53;0.43;;;;;;;11.71;100.00;99701.88;4992813;28;20262;-82
2022/12/31 03:07:04;;;;;;;0.47;0.40;;;;;;;11.70;100.00;99710.88;5000969;28;20239;-82
2022/12/31 03:09:30;;;;;;;0.53;0.53;;;;;;;11.73;100.00;99710.63;4997099;28;20210;-82
2022/12/31 03:14:41;;;;;;;0.60;0.60;;;;;;;11.77;100.00;99712.09;4997456;28;20205;-83
2022/12/31 03:17:08;;;;;;;1.33;0.67;;;;;;;11.80;100.00;99693.16;4992835;28;20719;-82
2022/12/31 03:22:28;;;;;;;0.73;0.40;;;;;;;11.81;100.00;99686.00;4992596;28;20222;-83
2022/12/31 03:27:41;;;;;;;0.30;0.30;;;;;;;11.81;100.00;99680.69;4990349;28;20205;-83
2022/12/31 03:30:09;;;;;;;0.53;0.33;;;;;;;11.79;100.00;99682.63;4984385;28;20713;-83
2022/12/31 03:32:36;;;;;;;0.73;0.40;;;;;;;11.78;100.00;99681.78;4988455;28;20662;-83
2022/12/31 03:35:04;;;;;;;0.40;0.40;;;;;;;11.76;100.00;99675.72;4994082;28;20440;-82
2022/12/31 03:37:30;;;;;;;0.60;0.40;;;;;;;11.76;100.00;99664.19;4989444;28;20231;-83
2022/12/31 03:39:57;;;;;;;0.60;0.40;;;;;;;11.75;100.00;99655.31;4990643;28;20235;-83
2022/12/31 03:42:23;;;;;;;0.70;0.60;;;;;;;11.74;100.00;99652.78;4995261;28;20570;-82
2022/12/31 03:44:50;;;;;;;0.93;0.57;;;;;;;11.71;100.00;99643.22;4986993;28;20705;-82
2022/12/31 03:47:16;;;;;;;1.07;0.77;;;;;;;11.69;100.00;99642.50;5001133;28;20227;-82
2022/12/31 03:49:44;;;;;;;0.50;0.50;;;;;;;11.70;100.00;99636.19;4988148;28;20699;-82
2022/12/31 03:52:10;;;;;;;0.77;0.77;;;;;;;11.68;100.00;99637.28;4998814;28;20207;-83
2022/12/31 03:54:37;;;;;;;0.50;0.50;;;;;;;11.67;100.00;99641.75;4995368;28;20678;-83
2022/12/31 03:57:03;;;;;;;2.97;1.30;;;;;;;11.66;100.00;99641.88;4992353;28;20241;-83
2022/12/31 03:59:30;;;;;;;1.30;0.70;;;;;;;11.66;100.00;99647.22;4994245;28;20234;-82
2022/12/31 04:01:56;;;;;;;2.37;1.33;;;;;;;11.65;100.00;99651.72;4993413;28;20209;-83
2022/12/31 04:04:23;;;;;;;0.67;0.50;;;;;;;11.65;100.00;99646.38;5000054;28;20208;-83
2022/12/31 04:06:50;;;;;;;3.20;1.60;;;;;;;11.67;100.00;99627.59;4999205;28;20237;-82
2022/12/31 04:09:17;;;;;;;3.17;1.30;;;;;;;11.68;100.00;99638.13;4995092;28;20210;-83
2022/12/31 04:11:43;;;;;;;1.70;0.77;;;;;;;11.71;100.00;99623.69;4996522;28;20210;-83
2022/12/31 04:14:10;;;;;;;4.37;1.80;;;;;;;11.78;100.00;99636.44;5004110;28;20209;-82
2022/12/31 04:16:37;;;;;;;2.93;1.37;;;;;;;11.83;100.00;99604.84;4988545;28;20230;-82
2022/12/31 04:19:04;;;;;;;4.40;1.97;;;;;;;11.86;100.00;99601.09;5001692;28;20250;-82
2022/12/31 04:21:30;;;;;;;1.50;0.70;;;;;;;11.88;100.00;99604.47;4992156;28;20231;-82
2022/12/31 04:23:58;;;;;;;1.73;0.70;;;;;;;11.93;100.00;99601.41;4998725;28;20213;-83
2022/12/31 04:26:25;;;;;;;3.13;1.13;;;;;;;11.97;100.00;99590.34;4998452;28;20227;-82
2022/12/31 04:28:51;;;;;;;2.03;0.83;;;;;;;12.03;100.00;99584.47;4990922;28;20199;-82
2022/12/31 04:31:18;;;;;;;2.00;1.00;;;;;;;12.09;100.00;99599.97;4997009;28;20210;-83
2022/12/31 04:33:44;;;;;;;2.47;1.30;;;;;;;12.12;100.00;99591.69;4987563;28;20208;-83
2022/12/31 04:36:11;;;;;;;1.57;0.63;;;;;;;12.21;100.00;99583.84;4993892;28;20245;-83
2022/12/31 04:38:37;;;;;;;1.73;1.00;;;;;;;12.25;100.00;99587.94;4996636;28;20674;-82
2022/12/31 04:41:17;;;;;;;2.07;1.17;;;;;;;12.30;100.00;99589.25;4994289;28;20256;-83
2022/12/31 04:43:46;;;;;;;2.33;1.10;;;;;;;12.38;100.00;99586.75;4990284;28;20307;-83
2022/12/31 04:46:13;;;;;;;2.00;0.90;;;;;;;12.41;100.00;99586.47;4989218;28;20325;-82
2022/12/31 04:48:39;;;;;;;1.10;0.40;;;;;;;12.44;100.00;99598.72;4988780;28;20197;-83
2022/12/31 04:51:06;;;;;;;1.20;0.50;;;;;;;12.48;100.00;99586.78;5001501;28;20211;-83
2022/12/31 04:53:33;;;;;;;0.83;0.37;;;;;;;12.52;100.00;99596.22;4988494;28;20712;-82
2022/12/31 04:55:59;;;;;;;1.00;0.30;;;;;;;12.57;100.00;99590.47;4994578;28;20625;-83
2022/12/31 04:58:27;;;;;;;3.43;1.33;;;;;;;12.65;100.00;99583.47;4998503;28;20230;-83
2022/12/31 05:00:54;;;;;;;0.47;0.13;;;;;;;12.72;100.00;99600.63;4991855;28;20216;-83
2022/12/31 05:03:22;;;;;;;0.60;0.30;;;;;;;12.74;100.00;99584.47;4999652;28;20200;-82
2022/12/31 05:05:48;;;;;;;0.87;0.40;;;;;;;12.80;100.00;99575.91;4985682;28;20726;-84
2022/12/31 05:08:17;;;;;;;0.23;0.10;;;;;;;12.85;100.00;99587.03;4991090;28;20214;-83
2022/12/31 05:10:45;;;;;;;2.30;0.80;;;;;;;12.92;100.00;99584.66;4997219;28;20211;-82
2022/12/31 05:13:12;;;;;;;0.60;0.60;;;;;;;12.96;100.00;99589.59;4996024;28;20240;-83
2022/12/31 05:15:40;;;;;;;0.30;0.10;;;;;;;13.03;100.00;99595.25;5001573;28;20220;-83
2022/12/31 05:18:07;;;;;;;0.00;0.00;;;;;;;13.05;100.00;99603.97;4992818;28;20202;-84
2022/12/31 05:20:35;;;;;;;0.10;0.10;;;;;;;13.10;100.00;99589.19;4989815;28;20845;-84
2022/12/31 05:23:01;;;;;;;0.10;0.10;;;;;;;13.14;100.00;99609.31;4998909;28;20207;-84
2022/12/31 05:25:28;;;;;;;0.20;0.00;;;;;;;13.20;100.00;99619.50;4998275;28;20758;-83
2022/12/31 05:27:54;;;;;;;0.10;0.10;;;;;;;13.26;100.00;99636.78;4997282;28;20207;-84
2022/12/31 05:30:21;;;;;;;0.00;0.00;;;;;;;13.32;100.00;99646.94;4989635;28;20589;-82
2022/12/31 05:32:49;;;;;;;0.10;0.10;;;;;;;13.35;100.00;99661.88;5001231;28;20210;-82
2022/12/31 05:35:16;;;;;;;0.10;0.10;;;;;;;13.37;100.00;99667.94;4990090;28;20212;-83
2022/12/31 05:37:42;;;;;;;0.13;0.13;;;;;;;13.37;100.00;99665.25;4995653;28;20706;-82
2022/12/31 05:40:10;;;;;;;0.10;0.10;;;;;;;13.34;100.00;99670.88;4998348;28;20582;-82
2022/12/31 05:42:37;;;;;;;0.40;0.10;;;;;;;13.27;100.00;99673.25;4998793;28;20214;-82
2022/12/31 05:45:04;;;;;;;0.30;0.20;;;;;;;13.24;100.00;99683.41;5003773;28;20210;-83
2022/12/31 05:47:30;;;;;;;0.50;0.20;;;;;;;13.18;100.00;99687.44;4997625;28;20227;-83
2022/12/31 05:49:58;;;;;;;0.20;0.10;;;;;;;13.15;100.00;99698.41;5001147;28;20217;-83
2022/12/31 05:52:25;;;;;;;0.20;0.20;;;;;;;13.10;100.00;99708.63;4987940;28;20208;-83
2022/12/31 05:54:51;;;;;;;0.73;0.10;;;;;;;13.05;100.00;99709.06;4999755;28;20205;-83
2022/12/31 05:57:18;;;;;;;0.73;0.20;;;;;;;13.01;100.00;99712.13;4992963;28;20575;-82
2022/12/31 05:59:44;;;;;;;0.13;0.13;;;;;;;12.97;100.00;99722.25;4999055;28;20257;-83
2022/12/31 06:02:10;;;;;;;0.83;0.20;;;;;;;12.92;100.00;99724.47;4992306;28;20207;-82
2022/12/31 06:04:37;;;;;;;0.77;0.20;;;;;;;12.89;100.00;99726.59;4993454;28;20212;-82
2022/12/31 06:07:05;;;;;;;0.60;0.20;;;;;;;12.85;100.00;99716.16;4999645;28;20234;-82
2022/12/31 06:09:31;;;;;;;0.93;0.20;;;;;;;12.82;100.00;99718.25;4993431;28;20199;-83
2022/12/31 06:11:58;;;;;;;0.50;0.23;;;;;;;12.79;100.00;99718.50;4991998;28;20224;-83
2022/12/31 06:14:24;;;;;;;1.17;0.50;;;;;;;12.77;100.00;99713.28;4995817;28;20716;-83
2022/12/31 06:16:50;;;;;;;0.20;0.20;;;;;;;12.76;100.00;99718.78;4996103;28;20235;-83
2022/12/31 06:19:17;;;;;;;0.23;0.23;;;;;;;12.75;100.00;99714.41;4998474;28;20224;-83
2022/12/31 06:21:43;;;;;;;0.40;0.20;;;;;;;12.74;100.00;99715.38;4985376;28;20208;-82
2022/12/31 06:24:11;;;;;;;0.30;0.30;;;;;;;12.73;100.00;99708.34;4998130;28;20503;-83
2022/12/31 06:26:38;;;;;;;1.27;0.70;;;;;;;12.71;100.00;99708.50;5001270;28;20584;-83
2022/12/31 06:29:04;;;;;;;0.73;0.60;;;;;;;12.69;100.00;99715.81;4989986;28;20215;-83
2022/12/31 06:31:31;;;;;;;1.20;0.43;;;;;;;12.68;100.00;99713.25;4990444;28;20212;-82
2022/12/31 06:33:57;;;;;;;0.70;0.50;;;;;;;12.67;100.00;99708.91;4994276;28;20215;-83
2022/12/31 06:36:25;;;;;;;0.40;0.40;;;;;;;12.66;100.00;99709.88;4996456;28;20235;-82
2022/12/31 06:38:52;;;;;;;0.50;0.40;;;;;;;12.62;100.00;99705.78;4999579;28;20207;-83
2022/12/31 06:41:20;;;;;;;0.73;0.30;;;;;;;12.59;100.00;99701.53;4996436;28;20578;-83
2022/12/31 06:43:48;;;;;;;0.33;0.30;;;;;;;12.58;100.00;99704.34;5004206;28;20206;-83
2022/12/31 06:46:16;;;;;;;0.43;0.40;;;;;;;12.53;100.00;99691.41;4994131;28;20226;-83
2022/12/31 06:48:43;;;;;;;0.70;0.40;;;;;;;12.51;100.00;99701.38;5001653;28;20207;-82
2022/12/31 06:51:12;;;;;;;0.10;0.10;;;;;;;12.48;100.00;99699.81;4998010;28;20267;-83
2022/12/31 06:53:39;;;;;;;0.23;0.10;;;;;;;12.47;100.00;99700.78;5001066;28;20202;-82
2022/12/31 06:56:07;;;;;;;0.27;0.10;;;;;;;12.45;100.00;99707.22;4991686;28;20222;-82
2022/12/31 06:58:36;;;;;;;0.10;0.10;;;;;;;12.43;100.00;99696.69;4993327;28;20601;-82
2022/12/31 07:01:12;;;;;;;0.10;0.10;;;;;;;12.42;100.00;99697.66;5002105;28;20235;-82
2022/12/31 07:03:44;;;;;;;0.20;0.10;;;;;;;12.48;100.00;99689.13;4993150;28;20214;-82
2022/12/31 07:06:16;;;;;;;0.10;0.10;;;;;;;12.48;100.00;99681.13;4992693;28;20234;-82
2022/12/31 07:08:50;;;;;;;0.83;0.20;;;;;;;12.51;100.00;99682.69;4993162;28;20215;-83
2022/12/31 07:11:22;;;;;;;0.43;0.27;;;;;;;12.59;100.00;99679.31;4991723;28;20195;-82
2022/12/31 07:14:06;;;;;;;0.30;0.30;;;;;;;12.66;100.00;99684.00;4998961;28;20211;-82
2022/12/31 07:16:41;;;;;;;0.30;0.30;;;;;;;12.73;100.00;99681.63;4998159;28;20225;-82
2022/12/31 07:19:21;;;;;;;0.80;0.20;;;;;;;12.81;100.00;99668.47;4997195;28;20198;-82
2022/12/31 07:21:51;;;;;;;0.20;0.10;;;;;;;12.91;100.00;99671.16;4987751;28;20200;-83
2022/12/31 07:24:18;;;;;;;0.23;0.20;;;;;;;13.01;100.00;99672.88;4998024;28;20675;-83
2022/12/31 07:26:55;;;;;;;0.37;0.10;;;;;;;13.13;100.00;99663.75;5002494;28;20237;-83
2022/12/31 07:29:31;;;;;;;0.57;0.10;;;;;;;13.22;100.00;99661.28;5001705;28;20206;-83
2022/12/31 07:32:08;;;;;;;0.23;0.20;;;;;;;13.31;100.00;99663.97;4991611;28;20199;-83
2022/12/31 07:34:45;;;;;;;0.30;0.20;;;;;;;13.44;100.00;99653.00;4997012;28;20191;-83
2022/12/31 07:37:21;;;;;;;0.90;0.13;;;;;;;13.53;100.00;99673.56;4999470;28;20716;-83
2022/12/31 07:39:59;;;;;;;0.20;0.20;;;;;;;13.61;100.00;99670.22;4993627;28;20607;-83
2022/12/31 07:42:32;;;;;;;0.83;0.13;;;;;;;13.72;100.00;99675.41;4993128;28;20199;-83
2022/12/31 07:45:10;;;;;;;0.97;0.20;;;;;;;13.83;100.00;99689.50;4996309;28;20654;-83
2022/12/31 07:47:37;;;;;;;0.17;0.10;;;;;;;13.93;100.00;99685.97;4994292;28;20225;-83
2022/12/31 07:50:05;;;;;;;0.50;0.20;;;;;;;14.03;100.00;99700.19;4998516;28;20208;-83
2022/12/31 07:52:32;;;;;;;0.13;0.10;;;;;;;14.07;100.00;99693.56;4995324;28;20210;-82
2022/12/31 07:54:58;;;;;;;0.10;0.10;;;;;;;14.13;100.00;99707.25;4989068;28;20208;-82
2022/12/31 07:57:36;;;;;;;0.10;0.10;;;;;;;14.20;100.00;99704.81;4986974;28;20686;-82
2022/12/31 08:00:08;;;;;;;0.30;0.30;;;;;;;14.29;100.00;99717.38;4986150;28;20210;-84
2022/12/31 08:03:01;;;;;;;1.13;0.20;;;;;;;14.36;99.67;99713.09;4992945;28;20272;-83
2022/12/31 08:05:33;;;;;;;0.30;0.20;;;;;;;14.46;98.05;99713.13;4987550;28;20220;-82
2022/12/31 08:08:13;;;;;;;0.10;0.10;;;;;;;14.59;96.63;99727.06;4987803;28;20234;-82
2022/12/31 08:10:50;;;;;;;0.93;0.17;;;;;;;14.62;95.00;99734.81;4991009;28;20203;-82
2022/12/31 08:13:17;;;;;;;1.40;0.20;;;;;;;14.69;94.70;99735.09;4995022;28;20607;-82
2022/12/31 08:15:45;;;;;;;0.73;0.20;;;;;;;14.73;94.30;99748.03;4990808;28;20228;-82
2022/12/31 08:18:12;;;;;;;0.20;0.20;;;;;;;14.78;94.39;99747.59;4982131;28;20213;-83
2022/12/31 08:20:49;;;;;;;0.50;0.13;;;;;;;14.86;94.20;99758.44;4996403;28;20594;-83
2022/12/31 08:23:24;;;;;;;1.30;0.30;;;;;;;14.91;93.14;99721.31;4996202;28;20209;-83
2022/12/31 08:26:03;;;;;;;0.10;0.10;;;;;;;14.96;92.26;99736.94;4993484;28;20228;-82
2022/12/31 08:28:47;;;;;;;0.40;0.20;;;;;;;15.00;91.86;99743.72;4992693;28;20214;-83
2022/12/31 08:31:19;;;;;;;0.43;0.43;;;;;;;15.09;91.09;99781.22;4990160;28;20231;-83
2022/12/31 08:33:53;;;;;;;1.10;0.13;;;;;;;15.12;90.32;99775.56;4989709;28;20221;-83
2022/12/31 08:36:28;;;;;;;1.93;0.20;;;;;;;15.18;89.96;99771.44;4995373;28;20239;-83
2022/12/31 08:39:01;;;;;;;0.37;0.30;;;;;;;15.20;89.93;99762.25;4996443;28;20684;-84
2022/12/31 08:41:33;;;;;;;0.73;0.20;;;;;;;15.25;89.60;99773.38;4992029;28;20230;-84
2022/12/31 08:44:11;;;;;;;0.63;0.20;;;;;;;15.28;90.12;99786.50;4998055;28;20680;-84
2022/12/31 08:46:48;;;;;;;0.23;0.20;;;;;;;15.28;90.04;99807.09;4998690;28;20232;-83
2022/12/31 08:49:15;;;;;;;0.10;0.10;;;;;;;15.28;90.33;99801.75;4989799;28;20201;-83
2022/12/31 08:51:42;;;;;;;0.80;0.20;;;;;;;15.28;90.47;99817.84;4992700;28;20671;-83
2022/12/31 08:54:10;;;;;;;0.73;0.20;;;;;;;15.27;90.84;99808.94;5001456;28;20220;-83
2022/12/31 08:56:42;;;;;;;1.63;0.30;;;;;;;15.26;91.02;99820.66;4993179;28;20233;-82
2022/12/31 08:59:21;;;;;;;0.77;0.30;;;;;;;15.24;91.46;99811.91;4988063;28;20203;-82
2022/12/31 09:02:11;;;;;;;2.10;0.37;;;;;;;15.21;91.41;99819.44;4985786;28;20224;-82
2022/12/31 09:04:48;;;;;;;0.90;0.40;;;;;;;15.18;91.95;99823.25;4989314;28;20236;-82
2022/12/31 09:07:19;;;;;;;0.73;0.30;;;;;;;15.14;92.47;99819.16;4986624;28;20235;-83
2022/12/31 09:09:58;;;;;;;1.03;0.27;;;;;;;15.12;92.71;99817.63;4989442;28;20711;-83
2022/12/31 09:12:34;;;;;;;0.63;0.20;;;;;;;15.12;92.68;99818.47;4987711;28;20210;-83
2022/12/31 09:15:11;;;;;;;2.50;0.50;;;;;;;15.10;92.69;99815.09;4992081;28;20207;-83
2022/12/31 09:17:49;;;;;;;0.50;0.43;;;;;;;15.09;93.02;99818.75;4990289;28;20240;-83
2022/12/31 09:20:21;;;;;;;1.47;0.50;;;;;;;15.08;92.97;99813.53;4994390;28;20210;-83
2022/12/31 09:22:48;;;;;;;0.67;0.40;;;;;;;15.09;92.88;99820.59;4989508;28;20201;-83
2022/12/31 09:25:17;;;;;;;0.87;0.37;;;;;;;15.13;92.75;99825.53;4987263;28;20201;-83
2022/12/31 09:27:50;;;;;;;0.77;0.30;;;;;;;15.15;92.09;99826.22;4997554;28;20232;-82
2022/12/31 09:30:17;;;;;;;0.80;0.40;;;;;;;15.15;91.87;99842.31;4995421;28;20213;-83
2022/12/31 09:32:55;;;;;;;0.83;0.20;;;;;;;15.18;91.76;99822.41;4996189;28;20208;-82
2022/12/31 09:35:28;;;;;;;0.80;0.30;;;;;;;15.20;91.43;99834.69;4996172;28;20666;-83
2022/12/31 09:38:00;;;;;;;0.30;0.20;;;;;;;15.21;91.12;99822.13;5004566;28;20222;-83
2022/12/31 09:40:43;;;;;;;0.40;0.30;;;;;;;15.20;91.05;99815.91;4989165;28;20228;-82
2022/12/31 09:43:51;;;;;;;0.20;0.20;;;;;;;15.22;90.86;99838.06;4994163;28;20609;-83
2022/12/31 09:46:57;;;;;;;1.67;0.80;;;;;;;15.23;90.64;99830.84;4990464;28;20239;-83
2022/12/31 09:49:59;;;;;;;0.97;0.40;;;;;;;15.23;90.41;99826.31;4956311;28;20209;-84
2022/12/31 09:52:38;;;;;;;0.97;0.30;;;;;;;15.26;90.08;99835.91;4992881;28;20213;-83
2022/12/31 09:55:23;;;;;;;1.17;0.23;;;;;;;15.25;89.89;99837.75;4996329;28;20201;-83
2022/12/31 09:58:05;;;;;;;1.43;0.30;;;;;;;15.33;89.27;99836.19;4986166;28;20210;-83
2022/12/31 10:00:42;;;;;;;0.50;0.20;;;;;;;15.39;88.81;99833.78;5000930;28;20224;-84
2022/12/31 10:03:29;;;;;;;2.03;0.40;;;;;;;15.41;88.42;99822.84;5000131;28;20215;-83
2022/12/31 10:06:16;;;;;;;2.13;0.30;;;;;;;15.46;87.83;99825.94;4999166;28;20707;-83
2022/12/31 10:09:00;;;;;;;0.90;0.30;;;;;;;15.51;87.51;99823.69;4996394;28;20208;-83
2022/12/31 10:11:32;;;;;;;0.60;0.30;;;;;;;15.55;86.73;99808.97;4993024;28;20231;-84
2022/12/31 10:14:13;;;;;;;1.87;0.50;;;;;;;15.59;86.50;99805.00;4995124;28;20213;-83
2022/12/31 10:16:55;;;;;;;0.30;0.20;;;;;;;15.64;85.73;99797.38;4993388;28;20575;-83
2022/12/31 10:19:45;;;;;;;1.07;0.30;;;;;;;15.68;84.76;99793.38;4998421;28;20811;-83
2022/12/31 10:22:38;;;;;;;0.93;0.30;;;;;;;15.76;84.23;99800.69;4994423;28;20230;-83
2022/12/31 10:25:24;;;;;;;0.30;0.30;;;;;;;15.80;83.52;99808.28;4995483;28;20206;-83
2022/12/31 10:28:00;;;;;;;1.20;0.30;;;;;;;15.84;82.83;99811.50;5001106;28;20200;-83
2022/12/31 10:30:33;;;;;;;0.83;0.30;;;;;;;15.89;82.31;99812.75;4999018;28;20579;-83
2022/12/31 10:33:15;;;;;;;1.20;0.30;;;;;;;15.98;81.54;99798.41;4993947;28;20209;-83
2022/12/31 10:35:47;;;;;;;1.47;0.50;;;;;;;16.02;81.27;99795.41;4994827;28;20287;-83
2022/12/31 10:38:26;;;;;;;0.80;0.40;;;;;;;16.06;80.22;99786.06;5001042;28;20210;-84
2022/12/31 10:41:28;;;;;;;0.63;0.60;;;;;;;16.10;80.01;99793.69;4988010;28;20222;-82
2022/12/31 10:44:30;;;;;;;0.97;0.30;;;;;;;16.12;79.39;99805.09;4997479;28;20213;-84
2022/12/31 10:47:37;;;;;;;0.40;0.30;;;;;;;16.23;78.19;99817.47;5003693;28;20230;-83
2022/12/31 10:50:28;;;;;;;1.07;0.50;;;;;;;16.27;77.82;99798.19;4990672;28;20212;-83
2022/12/31 10:53:25;;;;;;;0.20;0.20;;;;;;;16.31;77.39;99807.63;4993906;28;20222;-84
2022/12/31 10:56:39;;;;;;;1.20;0.90;;;;;;;16.33;77.12;99818.22;4993483;28;20238;-81
2022/12/31 10:59:38;;;;;;;1.10;0.60;;;;;;;16.36;76.94;99820.59;4936925;29;20223;-84
2022/12/31 11:02:31;;;;;;;1.43;0.60;;;;;;;16.35;76.60;99813.53;4884704;29;20229;-83
2022/12/31 11:05:38;;;;;;;0.60;0.27;;;;;;;16.45;75.38;99832.28;4981619;28;20212;-85
2022/12/31 11:08:26;;;;;;;1.33;0.80;;;;;;;16.48;75.63;99813.97;4992455;28;20208;-83
2022/12/31 11:11:08;;;;;;;0.70;0.40;;;;;;;16.55;75.16;99833.88;4992861;28;20246;-83
2022/12/31 11:14:34;;;;;;;1.33;0.30;;;;;;;16.54;75.31;99834.88;4992532;28;20215;-84
2022/12/31 11:17:23;;;;;;;0.43;0.37;;;;;;;16.55;75.51;99851.84;4989074;28;20229;-83
2022/12/31 11:20:02;;;;;;;1.33;0.60;;;;;;;16.57;75.43;99850.69;4992246;28;20214;-83
2022/12/31 11:22:42;;;;;;;1.63;0.77;;;;;;;16.58;75.39;99833.56;4992296;28;20304;-85
2022/12/31 11:25:44;;;;;;;0.87;0.50;;;;;;;16.60;75.23;99852.22;4990740;28;20213;-83
2022/12/31 11:28:30;;;;;;;1.33;0.40;;;;;;;16.57;75.43;99864.13;4958870;28;20208;-84
2022/12/31 11:31:12;;;;;;;2.97;2.03;;;;;;;16.59;75.02;99866.66;4991420;28;20207;-83
2022/12/31 11:33:54;;;;;;;3.70;1.90;;;;;;;16.64;74.81;99904.72;4987317;28;20262;-83
2022/12/31 11:36:33;;;;;;;3.00;2.27;;;;;;;16.65;75.01;99875.00;4987700;28;20241;-83
2022/12/31 11:39:22;;;;;;;1.40;1.00;;;;;;;16.67;74.96;99885.56;4984962;28;20217;-83
2022/12/31 11:41:54;;;;;;;7.03;4.57;;;;;;;16.65;75.00;99887.59;4984824;28;20303;-84
2022/12/31 11:44:39;;;;;;;2.10;0.90;;;;;;;16.67;75.03;99875.66;4988214;28;20233;-83
2022/12/31 11:47:20;;;;;;;3.83;2.57;;;;;;;16.67;74.90;99905.25;4994944;28;20240;-83
2022/12/31 11:50:10;;;;;;;1.53;0.97;;;;;;;16.69;74.76;99910.47;4990087;28;20214;-84
2022/12/31 11:52:51;;;;;;;3.90;1.10;;;;;;;16.71;75.04;99905.78;4989994;28;20196;-83
2022/12/31 11:55:28;;;;;;;6.83;4.67;;;;;;;16.70;74.99;99924.75;4991937;28;20489;-84
2022/12/31 11:58:02;;;;;;;3.40;1.77;;;;;;;16.68;74.93;99916.84;4988246;28;20215;-83
2022/12/31 12:00:31;;;;;;;7.27;4.00;;;;;;;16.71;75.03;99921.06;4989683;28;20203;-83
2022/12/31 12:03:01;;;;;;;10.10;6.53;;;;;;;16.69;74.90;99913.16;4992119;28;20215;-84
2022/12/31 12:05:29;;;;;;;6.00;3.40;;;;;;;16.70;75.24;99901.41;4990148;28;20666;-84
2022/12/31 12:07:59;;;;;;;7.60;5.30;;;;;;;16.69;75.51;99915.00;4997533;28;20586;-83